sensor_id;sensor_type;location;lat;lon;timestamp;pressure;altitude;pressure_sealevel;temperature;humidity
10668;BME280;5382;42.136;24.796;2023-06-10T00:00:27;99305.34;;;20.27;100.00
10668;BME280;5382;42.136;24.796;2023-06-10T00:02:56;99312.31;;;20.22;100.00
10668;BME280;5382;42.136;24.796;2023-06-10T00:05:24;99315.38;;;20.19;100.00
10668;BME280;5382;42.136;24.796;2023-06-10T00:07:55;99314.91;;;20.15;100.00
10668;BME280;5382;42.136;24.796;2023-06-10T00:10:22;99312.41;;;20.14;100.00
10668;BME280;5382;42.136;24.796;2023-06-10T00:12:49;99321.31;;;20.14;100.00
10668;BME280;5382;42.136;24.796;2023-06-10T00:15:17;99310.56;;;20.14;100.00
10668;BME280;5382;42.136;24.796;2023-06-10T00:17:43;99307.94;;;20.21;100.00
10668;BME280;5382;42.136;24.796;2023-06-10T00:20:11;99298.69;;;20.23;100.00
10668;BME280;5382;42.136;24.796;2023-06-10T00:22:40;99312.66;;;20.34;100.00
10668;BME280;5382;42.136;24.796;2023-06-10T00:25:10;99311.75;;;20.26;100.00
10668;BME280;5382;42.136;24.796;2023-06-10T00:27:37;99307.94;;;20.21;100.00
10668;BME280;5382;42.136;24.796;2023-06-10T00:30:05;99309.25;;;20.25;100.00
10668;BME280;5382;42.136;24.796;2023-06-10T00:32:33;99314.72;;;20.32;100.00
10668;BME280;5382;42.136;24.796;2023-06-10T00:34:59;99316.38;;;20.33;100.00
10668;BME280;5382;42.136;24.796;2023-06-10T00:37:26;99309.34;;;20.32;100.00
10668;BME280;5382;42.136;24.796;2023-06-10T00:39:55;99302.13;;;20.32;100.00
10668;BME280;5382;42.136;24.796;2023-06-10T00:42:22;99303.78;;;20.18;100.00
10668;BME280;5382;42.136;24.796;2023-06-10T00:44:49;99301.03;;;20.12;100.00
10668;BME280;5382;42.136;24.796;2023-06-10T00:47:16;99308.16;;;20.04;100.00
10668;BME280;5382;42.136;24.796;2023-06-10T00:49:44;99303.06;;;20.10;100.00
10668;BME280;5382;42.136;24.796;2023-06-10T00:52:12;99305.63;;;20.03;100.00
10668;BME280;5382;42.136;24.796;2023-06-10T00:54:40;99312.69;;;20.04;100.00
10668;BME280;5382;42.136;24.796;2023-06-10T00:57:08;99316.38;;;20.18;100.00
10668;BME280;5382;42.136;24.796;2023-06-10T00:59:36;99321.59;;;20.19;100.00
10668;BME280;5382;42.136;24.796;2023-06-10T01:02:03;99310.91;;;20.26;100.00
10668;BME280;5382;42.136;24.796;2023-06-10T01:04:30;99301.94;;;20.19;100.00
10668;BME280;5382;42.136;24.796;2023-06-10T01:07:08;99315.72;;;20.31;100.00
10668;BME280;5382;42.136;24.796;2023-06-10T01:09:41;99318.63;;;20.14;100.00
10668;BME280;5382;42.136;24.796;2023-06-10T01:12:19;99316.59;;;20.16;100.00
10668;BME280;5382;42.136;24.796;2023-06-10T01:14:47;99312.59;;;19.97;100.00
10668;BME280;5382;42.136;24.796;2023-06-10T01:17:14;99315.09;;;19.99;100.00
10668;BME280;5382;42.136;24.796;2023-06-10T01:19:43;99313.97;;;20.08;100.00
10668;BME280;5382;42.136;24.796;2023-06-10T01:22:11;99320.81;;;20.11;100.00
10668;BME280;5382;42.136;24.796;2023-06-10T01:24:41;99326.03;;;20.12;100.00
10668;BME280;5382;42.136;24.796;2023-06-10T01:27:12;99315.66;;;20.09;100.00
10668;BME280;5382;42.136;24.796;2023-06-10T01:29:43;99319.72;;;20.05;100.00
10668;BME280;5382;42.136;24.796;2023-06-10T01:32:15;99317.31;;;20.10;100.00
10668;BME280;5382;42.136;24.796;2023-06-10T01:34:42;99309.75;;;19.99;100.00
10668;BME280;5382;42.136;24.796;2023-06-10T01:37:17;99323.25;;;20.05;100.00
10668;BME280;5382;42.136;24.796;2023-06-10T01:39:45;99322.25;;;20.07;100.00
10668;BME280;5382;42.136;24.796;2023-06-10T01:42:13;99326.03;;;19.97;100.00
10668;BME280;5382;42.136;24.796;2023-06-10T01:44:41;99326.09;;;19.74;100.00
10668;BME280;5382;42.136;24.796;2023-06-10T01:47:08;99332.50;;;19.50;100.00
10668;BME280;5382;42.136;24.796;2023-06-10T01:49:35;99325.78;;;19.54;100.00
10668;BME280;5382;42.136;24.796;2023-06-10T01:52:02;99325.88;;;19.61;100.00
10668;BME280;5382;42.136;24.796;2023-06-10T01:54:30;99308.53;;;19.49;100.00
10668;BME280;5382;42.136;24.796;2023-06-10T01:56:57;99327.28;;;19.57;100.00
10668;BME280;5382;42.136;24.796;2023-06-10T01:59:24;99335.03;;;19.52;100.00
10668;BME280;5382;42.136;24.796;2023-06-10T02:01:50;99335.16;;;19.35;100.00
10668;BME280;5382;42.136;24.796;2023-06-10T02:04:17;99329.22;;;19.25;100.00
10668;BME280;5382;42.136;24.796;2023-06-10T02:06:44;99331.22;;;19.23;100.00
10668;BME280;5382;42.136;24.796;2023-06-10T02:09:11;99325.31;;;19.13;100.00
10668;BME280;5382;42.136;24.796;2023-06-10T02:11:39;99336.03;;;18.90;100.00
10668;BME280;5382;42.136;24.796;2023-06-10T02:14:06;99339.78;;;18.72;100.00
10668;BME280;5382;42.136;24.796;2023-06-10T02:16:33;99342.63;;;18.71;100.00
10668;BME280;5382;42.136;24.796;2023-06-10T02:19:00;99340.00;;;18.63;100.00
10668;BME280;5382;42.136;24.796;2023-06-10T02:21:28;99336.59;;;18.46;100.00
10668;BME280;5382;42.136;24.796;2023-06-10T02:23:55;99327.41;;;18.32;100.00
10668;BME280;5382;42.136;24.796;2023-06-10T02:26:22;99339.41;;;18.44;100.00
10668;BME280;5382;42.136;24.796;2023-06-10T02:28:52;99334.91;;;18.45;100.00
10668;BME280;5382;42.136;24.796;2023-06-10T02:31:19;99339.22;;;18.54;100.00
10668;BME280;5382;42.136;24.796;2023-06-10T02:33:46;99338.34;;;18.62;100.00
10668;BME280;5382;42.136;24.796;2023-06-10T02:36:13;99330.88;;;18.49;100.00
10668;BME280;5382;42.136;24.796;2023-06-10T02:38:41;99339.94;;;18.71;100.00
10668;BME280;5382;42.136;24.796;2023-06-10T02:41:08;99343.63;;;18.78;100.00
10668;BME280;5382;42.136;24.796;2023-06-10T02:43:35;99341.63;;;18.72;100.00
10668;BME280;5382;42.136;24.796;2023-06-10T02:46:03;99344.66;;;18.77;100.00
10668;BME280;5382;42.136;24.796;2023-06-10T02:48:30;99347.81;;;18.72;100.00
10668;BME280;5382;42.136;24.796;2023-06-10T02:50:57;99340.97;;;18.70;100.00
10668;BME280;5382;42.136;24.796;2023-06-10T02:53:23;99342.97;;;18.76;100.00
10668;BME280;5382;42.136;24.796;2023-06-10T02:55:50;99344.94;;;18.74;100.00
10668;BME280;5382;42.136;24.796;2023-06-10T02:58:17;99332.16;;;18.61;100.00
10668;BME280;5382;42.136;24.796;2023-06-10T03:00:44;99354.00;;;18.81;100.00
10668;BME280;5382;42.136;24.796;2023-06-10T03:03:12;99352.84;;;18.76;100.00
10668;BME280;5382;42.136;24.796;2023-06-10T03:05:39;99351.00;;;18.76;100.00
10668;BME280;5382;42.136;24.796;2023-06-10T03:08:05;99361.38;;;18.79;100.00
10668;BME280;5382;42.136;24.796;2023-06-10T03:10:32;99364.25;;;18.78;100.00
10668;BME280;5382;42.136;24.796;2023-06-10T03:12:59;99365.53;;;18.82;100.00
10668;BME280;5382;42.136;24.796;2023-06-10T03:15:26;99359.34;;;18.81;100.00
10668;BME280;5382;42.136;24.796;2023-06-10T03:17:54;99365.63;;;18.96;100.00
10668;BME280;5382;42.136;24.796;2023-06-10T03:20:22;99365.56;;;19.05;100.00
10668;BME280;5382;42.136;24.796;2023-06-10T03:22:51;99369.03;;;19.13;100.00
10668;BME280;5382;42.136;24.796;2023-06-10T03:25:18;99357.59;;;19.20;100.00
10668;BME280;5382;42.136;24.796;2023-06-10T03:27:46;99359.38;;;19.27;100.00
10668;BME280;5382;42.136;24.796;2023-06-10T03:30:13;99365.19;;;19.31;100.00
10668;BME280;5382;42.136;24.796;2023-06-10T03:32:42;99360.69;;;19.31;100.00
10668;BME280;5382;42.136;24.796;2023-06-10T03:35:09;99362.22;;;19.26;100.00
10668;BME280;5382;42.136;24.796;2023-06-10T03:37:37;99356.31;;;19.30;100.00
10668;BME280;5382;42.136;24.796;2023-06-10T03:40:05;99363.38;;;19.31;100.00
10668;BME280;5382;42.136;24.796;2023-06-10T03:42:32;99364.00;;;19.33;100.00
10668;BME280;5382;42.136;24.796;2023-06-10T03:44:59;99361.22;;;19.27;100.00
10668;BME280;5382;42.136;24.796;2023-06-10T03:47:26;99371.06;;;19.34;100.00
10668;BME280;5382;42.136;24.796;2023-06-10T03:49:52;99366.06;;;19.31;100.00
10668;BME280;5382;42.136;24.796;2023-06-10T03:52:19;99361.03;;;19.28;100.00
10668;BME280;5382;42.136;24.796;2023-06-10T03:54:47;99368.66;;;19.39;100.00
10668;BME280;5382;42.136;24.796;2023-06-10T03:57:14;99371.06;;;19.34;100.00
10668;BME280;5382;42.136;24.796;2023-06-10T03:59:41;99366.75;;;19.25;100.00
10668;BME280;5382;42.136;24.796;2023-06-10T04:02:07;99364.38;;;19.30;100.00
10668;BME280;5382;42.136;24.796;2023-06-10T04:04:35;99362.66;;;19.37;100.00
10668;BME280;5382;42.136;24.796;2023-06-10T04:07:03;99364.50;;;19.37;100.00
10668;BME280;5382;42.136;24.796;2023-06-10T04:09:30;99366.66;;;19.42;100.00
10668;BME280;5382;42.136;24.796;2023-06-10T04:11:59;99359.22;;;19.44;100.00
10668;BME280;5382;42.136;24.796;2023-06-10T04:14:26;99365.66;;;19.57;100.00
10668;BME280;5382;42.136;24.796;2023-06-10T04:16:53;99368.59;;;19.71;100.00
10668;BME280;5382;42.136;24.796;2023-06-10T04:19:20;99364.25;;;19.85;100.00
10668;BME280;5382;42.136;24.796;2023-06-10T04:21:46;99366.22;;;19.91;100.00
10668;BME280;5382;42.136;24.796;2023-06-10T04:24:13;99367.13;;;19.98;100.00
10668;BME280;5382;42.136;24.796;2023-06-10T04:26:40;99363.81;;;20.11;100.00
10668;BME280;5382;42.136;24.796;2023-06-10T04:29:08;99361.50;;;20.22;100.00
10668;BME280;5382;42.136;24.796;2023-06-10T04:31:35;99363.09;;;20.32;100.00
10668;BME280;5382;42.136;24.796;2023-06-10T04:34:02;99359.63;;;20.38;100.00
10668;BME280;5382;42.136;24.796;2023-06-10T04:36:29;99364.91;;;20.46;100.00
10668;BME280;5382;42.136;24.796;2023-06-10T04:38:58;99358.69;;;20.45;100.00
10668;BME280;5382;42.136;24.796;2023-06-10T04:41:24;99366.50;;;20.55;100.00
10668;BME280;5382;42.136;24.796;2023-06-10T04:43:52;99358.50;;;20.62;100.00
10668;BME280;5382;42.136;24.796;2023-06-10T04:46:20;99362.00;;;20.77;100.00
10668;BME280;5382;42.136;24.796;2023-06-10T04:48:47;99354.66;;;20.86;100.00
10668;BME280;5382;42.136;24.796;2023-06-10T04:51:14;99362.75;;;20.86;100.00
10668;BME280;5382;42.136;24.796;2023-06-10T04:53:41;99362.50;;;21.02;100.00
10668;BME280;5382;42.136;24.796;2023-06-10T04:56:08;99346.91;;;20.98;100.00
10668;BME280;5382;42.136;24.796;2023-06-10T04:58:35;99355.19;;;21.18;100.00
10668;BME280;5382;42.136;24.796;2023-06-10T05:01:01;99352.44;;;21.32;100.00
10668;BME280;5382;42.136;24.796;2023-06-10T05:03:29;99355.56;;;21.36;100.00
10668;BME280;5382;42.136;24.796;2023-06-10T05:05:56;99357.31;;;21.44;100.00
10668;BME280;5382;42.136;24.796;2023-06-10T05:08:23;99356.03;;;21.40;100.00
10668;BME280;5382;42.136;24.796;2023-06-10T05:10:50;99357.31;;;21.44;100.00
10668;BME280;5382;42.136;24.796;2023-06-10T05:13:17;99360.94;;;21.58;100.00
10668;BME280;5382;42.136;24.796;2023-06-10T05:15:44;99355.13;;;21.32;100.00
10668;BME280;5382;42.136;24.796;2023-06-10T05:18:11;99362.16;;;21.33;100.00
10668;BME280;5382;42.136;24.796;2023-06-10T05:20:40;99361.34;;;21.33;100.00
10668;BME280;5382;42.136;24.796;2023-06-10T05:23:07;99362.59;;;21.37;100.00
10668;BME280;5382;42.136;24.796;2023-06-10T05:25:34;99363.31;;;21.24;100.00
10668;BME280;5382;42.136;24.796;2023-06-10T05:28:01;99358.94;;;21.38;100.00
10668;BME280;5382;42.136;24.796;2023-06-10T05:30:28;99358.88;;;21.53;100.00
10668;BME280;5382;42.136;24.796;2023-06-10T05:32:55;99359.94;;;21.59;100.00
10668;BME280;5382;42.136;24.796;2023-06-10T05:35:22;99346.47;;;21.59;100.00
10668;BME280;5382;42.136;24.796;2023-06-10T05:37:50;99357.00;;;21.82;100.00
10668;BME280;5382;42.136;24.796;2023-06-10T05:40:17;99355.78;;;21.84;100.00
10668;BME280;5382;42.136;24.796;2023-06-10T05:42:43;99355.13;;;21.82;100.00
10668;BME280;5382;42.136;24.796;2023-06-10T05:45:10;99354.59;;;21.93;100.00
10668;BME280;5382;42.136;24.796;2023-06-10T05:47:37;99359.78;;;21.95;100.00
10668;BME280;5382;42.136;24.796;2023-06-10T05:50:05;99349.69;;;22.04;100.00
10668;BME280;5382;42.136;24.796;2023-06-10T05:52:32;99365.09;;;22.16;100.00
10668;BME280;5382;42.136;24.796;2023-06-10T05:55:01;99345.31;;;22.03;100.00
10668;BME280;5382;42.136;24.796;2023-06-10T05:57:28;99362.06;;;22.26;100.00
10668;BME280;5382;42.136;24.796;2023-06-10T05:59:55;99367.06;;;22.29;100.00
10668;BME280;5382;42.136;24.796;2023-06-10T06:02:21;99370.59;;;22.30;100.00
10668;BME280;5382;42.136;24.796;2023-06-10T06:04:48;99369.16;;;22.34;100.00
10668;BME280;5382;42.136;24.796;2023-06-10T06:07:15;99375.38;;;22.34;100.00
10668;BME280;5382;42.136;24.796;2023-06-10T06:09:42;99374.56;;;22.40;100.00
10668;BME280;5382;42.136;24.796;2023-06-10T06:12:10;99383.47;;;22.34;100.00
10668;BME280;5382;42.136;24.796;2023-06-10T06:14:38;99381.06;;;22.53;100.00
10668;BME280;5382;42.136;24.796;2023-06-10T06:17:05;99370.84;;;22.41;100.00
10668;BME280;5382;42.136;24.796;2023-06-10T06:19:32;99388.06;;;22.40;100.00
10668;BME280;5382;42.136;24.796;2023-06-10T06:21:59;99378.00;;;22.62;100.00
10668;BME280;5382;42.136;24.796;2023-06-10T06:24:26;99386.59;;;22.86;100.00
10668;BME280;5382;42.136;24.796;2023-06-10T06:26:53;99378.31;;;22.88;100.00
10668;BME280;5382;42.136;24.796;2023-06-10T06:29:21;99372.16;;;23.00;100.00
10668;BME280;5382;42.136;24.796;2023-06-10T06:31:48;99370.91;;;23.03;100.00
10668;BME280;5382;42.136;24.796;2023-06-10T06:34:15;99383.97;;;23.13;100.00
10668;BME280;5382;42.136;24.796;2023-06-10T06:36:42;99376.53;;;23.21;100.00
10668;BME280;5382;42.136;24.796;2023-06-10T06:39:08;99375.94;;;23.39;100.00
10668;BME280;5382;42.136;24.796;2023-06-10T06:41:35;99367.84;;;23.52;100.00
10668;BME280;5382;42.136;24.796;2023-06-10T06:44:02;99360.78;;;23.65;100.00
10668;BME280;5382;42.136;24.796;2023-06-10T06:46:30;99363.47;;;23.71;100.00
10668;BME280;5382;42.136;24.796;2023-06-10T06:48:57;99359.56;;;23.81;100.00
10668;BME280;5382;42.136;24.796;2023-06-10T06:51:24;99363.69;;;23.90;100.00
10668;BME280;5382;42.136;24.796;2023-06-10T06:53:51;99361.63;;;23.92;100.00
10668;BME280;5382;42.136;24.796;2023-06-10T06:56:20;99362.03;;;23.89;100.00
10668;BME280;5382;42.136;24.796;2023-06-10T06:58:47;99360.16;;;23.89;100.00
10668;BME280;5382;42.136;24.796;2023-06-10T07:01:13;99355.38;;;23.85;100.00
10668;BME280;5382;42.136;24.796;2023-06-10T07:03:42;99348.13;;;23.79;100.00
10668;BME280;5382;42.136;24.796;2023-06-10T07:06:09;99357.69;;;23.81;100.00
10668;BME280;5382;42.136;24.796;2023-06-10T07:08:36;99342.28;;;23.68;100.00
10668;BME280;5382;42.136;24.796;2023-06-10T07:11:02;99346.69;;;23.83;100.00
10668;BME280;5382;42.136;24.796;2023-06-10T07:13:29;99343.69;;;24.11;100.00
10668;BME280;5382;42.136;24.796;2023-06-10T07:15:56;99337.19;;;24.32;100.00
10668;BME280;5382;42.136;24.796;2023-06-10T07:18:23;99335.47;;;24.44;100.00
10668;BME280;5382;42.136;24.796;2023-06-10T07:20:51;99341.03;;;24.63;100.00
10668;BME280;5382;42.136;24.796;2023-06-10T07:23:18;99339.06;;;24.83;100.00
10668;BME280;5382;42.136;24.796;2023-06-10T07:25:44;99339.66;;;24.85;100.00
10668;BME280;5382;42.136;24.796;2023-06-10T07:28:11;99332.91;;;25.01;100.00
10668;BME280;5382;42.136;24.796;2023-06-10T07:30:38;99341.81;;;25.08;100.00
10668;BME280;5382;42.136;24.796;2023-06-10T07:33:05;99333.75;;;25.01;100.00
10668;BME280;5382;42.136;24.796;2023-06-10T07:35:33;99334.59;;;25.02;100.00
10668;BME280;5382;42.136;24.796;2023-06-10T07:38:01;99332.69;;;25.02;100.00
10668;BME280;5382;42.136;24.796;2023-06-10T07:40:28;99332.72;;;24.96;100.00
10668;BME280;5382;42.136;24.796;2023-06-10T07:42:55;99334.59;;;25.02;100.00
10668;BME280;5382;42.136;24.796;2023-06-10T07:45:22;99342.13;;;24.93;100.00
10668;BME280;5382;42.136;24.796;2023-06-10T07:47:49;99336.94;;;24.92;100.00
10668;BME280;5382;42.136;24.796;2023-06-10T07:50:15;99328.59;;;24.93;100.00
10668;BME280;5382;42.136;24.796;2023-06-10T07:52:42;99335.88;;;24.93;100.00
10668;BME280;5382;42.136;24.796;2023-06-10T07:55:10;99328.84;;;24.85;100.00
10668;BME280;5382;42.136;24.796;2023-06-10T07:57:37;99330.53;;;24.79;100.00
10668;BME280;5382;42.136;24.796;2023-06-10T08:00:07;99324.75;;;24.76;100.00
10668;BME280;5382;42.136;24.796;2023-06-10T08:02:34;99318.47;;;24.82;100.00
10668;BME280;5382;42.136;24.796;2023-06-10T08:05:01;99337.75;;;24.99;100.00
10668;BME280;5382;42.136;24.796;2023-06-10T08:07:34;99306.00;;;24.74;100.00
10668;BME280;5382;42.136;24.796;2023-06-10T08:10:01;99322.94;;;25.01;100.00
10668;BME280;5382;42.136;24.796;2023-06-10T08:12:29;99332.25;;;25.06;100.00
10668;BME280;5382;42.136;24.796;2023-06-10T08:14:56;99323.63;;;25.22;100.00
10668;BME280;5382;42.136;24.796;2023-06-10T08:17:23;99336.03;;;25.36;100.00
10668;BME280;5382;42.136;24.796;2023-06-10T08:19:50;99321.34;;;25.51;100.00
10668;BME280;5382;42.136;24.796;2023-06-10T08:22:17;99323.41;;;25.74;100.00
10668;BME280;5382;42.136;24.796;2023-06-10T08:24:44;99323.91;;;25.89;100.00
10668;BME280;5382;42.136;24.796;2023-06-10T08:27:10;99317.38;;;26.15;100.00
10668;BME280;5382;42.136;24.796;2023-06-10T08:29:39;99316.84;;;26.62;100.00
10668;BME280;5382;42.136;24.796;2023-06-10T08:32:06;99314.09;;;26.80;100.00
10668;BME280;5382;42.136;24.796;2023-06-10T08:34:33;99317.94;;;26.72;100.00
10668;BME280;5382;42.136;24.796;2023-06-10T08:37:01;99314.28;;;26.67;100.00
10668;BME280;5382;42.136;24.796;2023-06-10T08:39:28;99312.94;;;26.88;100.00
10668;BME280;5382;42.136;24.796;2023-06-10T08:42:04;99308.59;;;26.98;100.00
10668;BME280;5382;42.136;24.796;2023-06-10T08:44:35;99309.44;;;27.11;100.00
10668;BME280;5382;42.136;24.796;2023-06-10T08:47:08;99281.34;;;27.17;100.00
10668;BME280;5382;42.136;24.796;2023-06-10T08:49:43;99295.63;;;27.12;100.00
10668;BME280;5382;42.136;24.796;2023-06-10T08:52:14;99292.97;;;27.24;100.00
10668;BME280;5382;42.136;24.796;2023-06-10T08:54:43;99277.84;;;27.28;100.00
10668;BME280;5382;42.136;24.796;2023-06-10T08:57:10;99286.72;;;27.71;100.00
10668;BME280;5382;42.136;24.796;2023-06-10T08:59:37;99278.91;;;27.74;85.09
10668;BME280;5382;42.136;24.796;2023-06-10T09:02:07;99272.06;;;27.95;86.30
10668;BME280;5382;42.136;24.796;2023-06-10T09:04:36;99270.78;;;28.26;83.82
10668;BME280;5382;42.136;24.796;2023-06-10T09:07:04;99268.88;;;28.67;78.49
10668;BME280;5382;42.136;24.796;2023-06-10T09:09:32;99270.16;;;28.77;75.47
10668;BME280;5382;42.136;24.796;2023-06-10T09:12:01;99264.44;;;28.78;74.39
10668;BME280;5382;42.136;24.796;2023-06-10T09:14:28;99268.13;;;28.84;75.42
10668;BME280;5382;42.136;24.796;2023-06-10T09:16:55;99272.28;;;29.20;70.34
10668;BME280;5382;42.136;24.796;2023-06-10T09:19:25;99263.44;;;29.47;64.69
10668;BME280;5382;42.136;24.796;2023-06-10T09:21:52;99263.59;;;29.57;64.10
10668;BME280;5382;42.136;24.796;2023-06-10T09:24:19;99262.16;;;29.71;58.92
10668;BME280;5382;42.136;24.796;2023-06-10T09:26:47;99254.59;;;29.40;56.25
10668;BME280;5382;42.136;24.796;2023-06-10T09:29:14;99251.13;;;29.27;56.69
10668;BME280;5382;42.136;24.796;2023-06-10T09:31:41;99260.41;;;29.09;58.36
10668;BME280;5382;42.136;24.796;2023-06-10T09:34:08;99255.81;;;28.81;60.67
10668;BME280;5382;42.136;24.796;2023-06-10T09:36:38;99237.22;;;28.78;64.34
10668;BME280;5382;42.136;24.796;2023-06-10T09:39:05;99251.59;;;28.90;64.06
10668;BME280;5382;42.136;24.796;2023-06-10T09:41:32;99253.34;;;28.97;62.62
10668;BME280;5382;42.136;24.796;2023-06-10T09:43:59;99256.53;;;28.93;62.59
10668;BME280;5382;42.136;24.796;2023-06-10T09:46:30;99254.97;;;29.09;62.89
10668;BME280;5382;42.136;24.796;2023-06-10T09:48:58;99249.34;;;29.16;61.32
10668;BME280;5382;42.136;24.796;2023-06-10T09:51:25;99245.09;;;29.42;64.27
10668;BME280;5382;42.136;24.796;2023-06-10T09:53:54;99231.31;;;29.32;63.26
10668;BME280;5382;42.136;24.796;2023-06-10T09:56:21;99226.69;;;29.32;60.16
10668;BME280;5382;42.136;24.796;2023-06-10T09:58:53;99242.97;;;29.83;60.84
10668;BME280;5382;42.136;24.796;2023-06-10T10:01:20;99243.31;;;30.09;59.51
10668;BME280;5382;42.136;24.796;2023-06-10T10:03:48;99239.50;;;29.88;71.32
10668;BME280;5382;42.136;24.796;2023-06-10T10:06:16;99248.16;;;29.46;84.29
10668;BME280;5382;42.136;24.796;2023-06-10T10:08:45;99248.28;;;28.88;95.04
10668;BME280;5382;42.136;24.796;2023-06-10T10:11:14;99241.66;;;28.67;97.80
10668;BME280;5382;42.136;24.796;2023-06-10T10:13:45;99248.91;;;28.33;100.00
10668;BME280;5382;42.136;24.796;2023-06-10T10:16:16;99242.06;;;28.19;100.00
10668;BME280;5382;42.136;24.796;2023-06-10T10:18:48;99242.25;;;28.00;100.00
10668;BME280;5382;42.136;24.796;2023-06-10T10:21:16;99243.06;;;28.01;100.00
10668;BME280;5382;42.136;24.796;2023-06-10T10:23:53;99238.69;;;28.12;99.07
10668;BME280;5382;42.136;24.796;2023-06-10T10:26:23;99244.13;;;28.12;97.84
10668;BME280;5382;42.136;24.796;2023-06-10T10:28:59;99241.56;;;27.93;99.07
10668;BME280;5382;42.136;24.796;2023-06-10T10:31:29;99239.16;;;28.09;99.21
10668;BME280;5382;42.136;24.796;2023-06-10T10:34:00;99237.59;;;28.13;97.29
10668;BME280;5382;42.136;24.796;2023-06-10T10:36:29;99245.00;;;27.89;94.80
10668;BME280;5382;42.136;24.796;2023-06-10T10:38:56;99240.19;;;28.19;94.88
10668;BME280;5382;42.136;24.796;2023-06-10T10:41:27;99235.53;;;28.60;92.94
10668;BME280;5382;42.136;24.796;2023-06-10T10:43:55;99237.66;;;28.87;90.54
10668;BME280;5382;42.136;24.796;2023-06-10T10:46:23;99226.22;;;29.35;82.31
10668;BME280;5382;42.136;24.796;2023-06-10T10:48:52;99234.69;;;29.56;78.75
10668;BME280;5382;42.136;24.796;2023-06-10T10:51:20;99238.03;;;29.80;81.15
10668;BME280;5382;42.136;24.796;2023-06-10T10:54:10;99242.72;;;29.46;80.59
10668;BME280;5382;42.136;24.796;2023-06-10T10:56:39;99236.44;;;29.28;82.91
10668;BME280;5382;42.136;24.796;2023-06-10T10:59:07;99244.63;;;29.28;80.04
10668;BME280;5382;42.136;24.796;2023-06-10T11:01:41;99239.09;;;29.23;79.64
10668;BME280;5382;42.136;24.796;2023-06-10T11:04:12;99240.91;;;29.18;81.93
10668;BME280;5382;42.136;24.796;2023-06-10T11:06:39;99228.84;;;29.30;80.89
10668;BME280;5382;42.136;24.796;2023-06-10T11:09:27;99230.00;;;29.34;77.52
10668;BME280;5382;42.136;24.796;2023-06-10T11:11:58;99227.91;;;28.91;78.46
10668;BME280;5382;42.136;24.796;2023-06-10T11:14:28;99221.47;;;28.80;78.46
10668;BME280;5382;42.136;24.796;2023-06-10T11:16:57;99214.28;;;28.91;78.79
10668;BME280;5382;42.136;24.796;2023-06-10T11:19:35;99210.50;;;28.92;74.55
10668;BME280;5382;42.136;24.796;2023-06-10T11:22:05;99205.41;;;29.12;73.56
10668;BME280;5382;42.136;24.796;2023-06-10T11:24:32;99209.69;;;29.25;74.19
10668;BME280;5382;42.136;24.796;2023-06-10T11:27:17;99214.34;;;29.08;80.65
10668;BME280;5382;42.136;24.796;2023-06-10T11:29:58;99205.03;;;28.58;87.22
10668;BME280;5382;42.136;24.796;2023-06-10T11:32:29;99200.81;;;28.22;89.18
10668;BME280;5382;42.136;24.796;2023-06-10T11:34:57;99205.97;;;28.98;84.97
10668;BME280;5382;42.136;24.796;2023-06-10T11:37:24;99207.69;;;29.76;79.15
10668;BME280;5382;42.136;24.796;2023-06-10T11:39:52;99183.09;;;29.93;76.69
10668;BME280;5382;42.136;24.796;2023-06-10T11:42:21;99205.72;;;30.16;78.46
10668;BME280;5382;42.136;24.796;2023-06-10T11:44:49;99198.56;;;30.32;75.77
10668;BME280;5382;42.136;24.796;2023-06-10T11:47:16;99178.66;;;30.63;72.50
10668;BME280;5382;42.136;24.796;2023-06-10T11:49:43;99186.78;;;31.23;68.26
10668;BME280;5382;42.136;24.796;2023-06-10T11:52:10;99181.69;;;31.84;63.49
10668;BME280;5382;42.136;24.796;2023-06-10T11:54:37;99184.31;;;32.42;65.32
10668;BME280;5382;42.136;24.796;2023-06-10T11:57:04;99179.72;;;33.04;60.04
10668;BME280;5382;42.136;24.796;2023-06-10T11:59:34;99171.50;;;32.58;58.99
10668;BME280;5382;42.136;24.796;2023-06-10T12:02:01;99173.81;;;31.98;59.66
10668;BME280;5382;42.136;24.796;2023-06-10T12:04:28;99177.59;;;31.92;58.98
10668;BME280;5382;42.136;24.796;2023-06-10T12:06:57;99173.59;;;32.10;60.07
10668;BME280;5382;42.136;24.796;2023-06-10T12:09:25;99167.94;;;32.68;61.74
10668;BME280;5382;42.136;24.796;2023-06-10T12:11:53;99171.50;;;33.09;58.05
10668;BME280;5382;42.136;24.796;2023-06-10T12:14:53;99168.69;;;33.45;56.47
10668;BME280;5382;42.136;24.796;2023-06-10T12:17:22;99166.31;;;33.03;56.29
10668;BME280;5382;42.136;24.796;2023-06-10T12:19:49;99166.56;;;32.55;55.93
10668;BME280;5382;42.136;24.796;2023-06-10T12:22:16;99164.25;;;32.01;56.01
10668;BME280;5382;42.136;24.796;2023-06-10T12:24:45;99158.47;;;30.64;66.18
10668;BME280;5382;42.136;24.796;2023-06-10T12:27:12;99161.34;;;29.76;78.92
10668;BME280;5382;42.136;24.796;2023-06-10T12:29:39;99163.88;;;28.72;89.03
10668;BME280;5382;42.136;24.796;2023-06-10T12:32:08;99172.53;;;27.82;94.16
10668;BME280;5382;42.136;24.796;2023-06-10T12:34:37;99164.34;;;27.42;98.43
10668;BME280;5382;42.136;24.796;2023-06-10T12:37:05;99151.56;;;27.07;99.44
10668;BME280;5382;42.136;24.796;2023-06-10T12:39:33;99160.16;;;26.92;100.00
10668;BME280;5382;42.136;24.796;2023-06-10T12:42:01;99160.88;;;27.00;100.00
10668;BME280;5382;42.136;24.796;2023-06-10T12:44:32;99154.53;;;27.06;100.00
10668;BME280;5382;42.136;24.796;2023-06-10T12:47:00;99155.00;;;27.38;100.00
10668;BME280;5382;42.136;24.796;2023-06-10T12:49:28;99150.34;;;27.62;100.00
10668;BME280;5382;42.136;24.796;2023-06-10T12:51:55;99147.19;;;27.53;100.00
10668;BME280;5382;42.136;24.796;2023-06-10T12:54:22;99142.59;;;28.23;96.31
10668;BME280;5382;42.136;24.796;2023-06-10T12:56:49;99139.47;;;29.32;89.32